createdAt,value
2022-11-30T00:00:59.096Z,1.10
2022-11-30T00:03:29.477Z,1.02
2022-11-30T00:06:06.228Z,0.95
2022-11-30T00:08:36.565Z,0.75
2022-11-30T00:11:15.009Z,1.17
2022-11-30T00:13:45.429Z,0.80
2022-11-30T00:16:16.020Z,1.52
2022-11-30T00:18:46.500Z,0.70
2022-11-30T00:21:17.572Z,1.15
2022-11-30T00:23:49.913Z,1.50
2022-11-30T00:26:24.494Z,1.08
2022-11-30T00:28:55.138Z,1.20
2022-11-30T00:31:26.519Z,1.00
2022-11-30T00:33:57.080Z,1.25
2022-11-30T00:36:27.348Z,0.80
2022-11-30T00:38:57.837Z,1.00
2022-11-30T00:41:28.027Z,1.40
2022-11-30T00:43:58.338Z,1.10
2022-11-30T00:46:28.778Z,1.83
2022-11-30T00:48:59.012Z,1.35
2022-11-30T00:51:29.205Z,1.08
2022-11-30T00:53:59.477Z,1.33
2022-11-30T00:56:29.740Z,1.00
2022-11-30T00:58:59.917Z,1.42
2022-11-30T01:01:30.309Z,1.40
2022-11-30T01:04:00.816Z,1.00
2022-11-30T01:06:31.206Z,1.27
2022-11-30T01:09:01.848Z,1.20
2022-11-30T01:11:33.714Z,0.98
2022-11-30T01:14:04.138Z,1.35
2022-11-30T01:16:36.321Z,1.30
2022-11-30T01:19:06.787Z,1.23
2022-11-30T01:21:37.051Z,0.80
2022-11-30T01:24:07.618Z,0.80
2022-11-30T01:26:37.984Z,1.10
2022-11-30T01:29:08.748Z,0.85
2022-11-30T01:31:39.391Z,0.95
2022-11-30T01:34:09.613Z,1.20
2022-11-30T01:36:40.766Z,1.00
2022-11-30T01:39:12.088Z,0.52
2022-11-30T01:41:42.829Z,0.80
2022-11-30T01:44:20.314Z,0.65
2022-11-30T01:47:01.293Z,1.10
2022-11-30T01:49:36.506Z,1.20
2022-11-30T01:52:08.399Z,0.90
2022-11-30T01:54:48.208Z,1.13
2022-11-30T01:57:28.161Z,1.02
2022-11-30T02:00:03.408Z,1.52
2022-11-30T02:03:28.726Z,1.75
2022-11-30T02:05:59.584Z,1.17
2022-11-30T02:08:30.974Z,1.23
2022-11-30T02:11:05.877Z,1.40
2022-11-30T02:14:04.989Z,1.05
2022-11-30T02:16:50.327Z,1.05
2022-11-30T02:19:54.527Z,1.00
2022-11-30T02:22:24.859Z,1.02
2022-11-30T02:25:09.812Z,1.20
2022-11-30T02:28:00.096Z,1.08
2022-11-30T02:30:31.535Z,0.98
2022-11-30T02:33:11.912Z,1.15
2022-11-30T02:35:51.630Z,1.10
2022-11-30T02:38:30.425Z,0.90
2022-11-30T02:41:00.622Z,0.65
2022-11-30T02:43:33.108Z,1.30
2022-11-30T02:46:12.634Z,0.70
2022-11-30T02:49:26.911Z,0.90
2022-11-30T02:51:58.734Z,0.65
2022-11-30T02:54:28.956Z,0.70
2022-11-30T02:56:59.732Z,0.57
2022-11-30T02:59:30.278Z,0.50
2022-11-30T03:02:00.554Z,0.50
2022-11-30T03:04:30.836Z,0.45
2022-11-30T03:07:01.109Z,0.60
2022-11-30T03:09:31.345Z,0.75
2022-11-30T03:12:01.558Z,0.60
2022-11-30T03:14:31.782Z,0.43
2022-11-30T03:17:02.036Z,0.60
2022-11-30T03:19:32.310Z,0.60
2022-11-30T03:22:02.654Z,0.73
2022-11-30T03:24:33.068Z,0.60
2022-11-30T03:27:03.234Z,0.32
2022-11-30T03:29:33.444Z,0.45
2022-11-30T03:32:03.662Z,0.40
2022-11-30T03:34:33.989Z,0.68
2022-11-30T03:37:04.204Z,0.50
2022-11-30T03:39:34.494Z,0.50
2022-11-30T03:42:05.294Z,0.50
2022-11-30T03:44:35.540Z,0.45
2022-11-30T03:47:05.779Z,0.30
2022-11-30T03:49:35.973Z,0.50
2022-11-30T03:52:06.173Z,0.60
2022-11-30T03:54:36.517Z,0.32
2022-11-30T03:57:07.359Z,0.30
2022-11-30T03:59:37.579Z,0.30
2022-11-30T04:02:08.065Z,0.60
2022-11-30T04:04:38.359Z,0.50
2022-11-30T04:07:08.536Z,0.28
2022-11-30T04:09:38.897Z,0.40
2022-11-30T04:12:09.246Z,0.68
2022-11-30T04:14:39.653Z,0.47
2022-11-30T04:17:09.818Z,0.43
2022-11-30T04:19:40.352Z,0.20
2022-11-30T04:22:10.788Z,0.40
2022-11-30T04:24:41.246Z,0.52
2022-11-30T04:27:11.572Z,0.30
2022-11-30T04:29:42.354Z,0.30
2022-11-30T04:32:12.807Z,0.30
2022-11-30T04:34:43.545Z,0.28
2022-11-30T04:37:14.013Z,0.28
2022-11-30T04:39:44.478Z,0.30
2022-11-30T04:42:17.898Z,0.47
2022-11-30T04:44:48.487Z,0.30
2022-11-30T04:47:18.847Z,0.30
2022-11-30T04:49:49.486Z,0.35
2022-11-30T04:52:19.801Z,0.70
2022-11-30T04:54:50.377Z,0.68
2022-11-30T04:57:21.268Z,0.75
2022-11-30T04:59:51.460Z,0.52
2022-11-30T05:02:21.598Z,0.50
2022-11-30T05:04:51.885Z,0.93
2022-11-30T05:07:22.287Z,0.50
2022-11-30T05:09:52.505Z,0.60
2022-11-30T05:12:22.687Z,0.55
2022-11-30T05:14:52.965Z,0.60
2022-11-30T05:17:23.203Z,0.50
2022-11-30T05:19:53.402Z,0.43
2022-11-30T05:22:23.735Z,0.50
2022-11-30T05:24:54.011Z,0.57
2022-11-30T05:27:24.234Z,0.50
2022-11-30T05:29:54.553Z,0.50
2022-11-30T05:32:24.961Z,0.40
2022-11-30T05:34:55.631Z,0.35
2022-11-30T05:37:26.267Z,0.43
2022-11-30T05:39:56.496Z,0.45
2022-11-30T05:42:27.243Z,0.55
2022-11-30T05:44:57.719Z,0.40
2022-11-30T05:47:27.917Z,0.60
2022-11-30T05:49:58.143Z,0.50
2022-11-30T05:52:28.363Z,0.35
2022-11-30T05:54:58.522Z,0.43
2022-11-30T05:57:28.755Z,0.60
2022-11-30T05:59:59.828Z,0.45
2022-11-30T06:02:30.156Z,0.63
2022-11-30T06:05:00.524Z,0.30
2022-11-30T06:07:30.813Z,0.52
2022-11-30T06:10:01.033Z,0.57
2022-11-30T06:12:31.209Z,0.45
2022-11-30T06:15:01.436Z,0.65
2022-11-30T06:17:31.777Z,0.40
2022-11-30T06:20:02.002Z,0.65
2022-11-30T06:22:32.715Z,0.70
2022-11-30T06:25:02.941Z,0.63
2022-11-30T06:27:36.290Z,0.77
2022-11-30T06:30:06.911Z,0.60
2022-11-30T06:32:37.094Z,0.60
2022-11-30T06:35:07.624Z,0.85
2022-11-30T06:37:38.124Z,0.55
2022-11-30T06:40:09.682Z,0.63
2022-11-30T06:42:40.816Z,0.77
2022-11-30T06:45:11.550Z,0.70
2022-11-30T06:47:41.935Z,0.45
2022-11-30T06:50:12.258Z,0.50
2022-11-30T06:52:43.282Z,0.75
2022-11-30T06:55:13.862Z,0.60
2022-11-30T06:57:44.729Z,0.40
2022-11-30T07:00:15.960Z,0.50
2022-11-30T07:02:46.630Z,0.65
2022-11-30T07:05:16.966Z,0.50
2022-11-30T07:07:47.480Z,0.65
2022-11-30T07:10:20.216Z,0.40
2022-11-30T07:12:51.337Z,0.57
2022-11-30T07:15:21.576Z,0.52
2022-11-30T07:17:51.887Z,0.70
2022-11-30T07:20:22.048Z,0.77
2022-11-30T07:22:52.382Z,0.88
2022-11-30T07:25:40.447Z,0.80
2022-11-30T07:28:10.817Z,0.90
2022-11-30T07:30:40.971Z,1.02
2022-11-30T07:33:11.201Z,1.08
2022-11-30T07:35:41.331Z,1.05
2022-11-30T07:38:12.098Z,1.45
2022-11-30T07:40:42.331Z,1.10
2022-11-30T07:43:12.664Z,1.23
2022-11-30T07:45:42.948Z,0.93
2022-11-30T07:48:13.335Z,0.90
2022-11-30T07:50:43.556Z,0.95
2022-11-30T07:53:13.837Z,1.10
2022-11-30T07:55:44.431Z,0.77
2022-11-30T07:58:17.417Z,0.90
2022-11-30T08:00:49.435Z,0.80
2022-11-30T08:03:21.267Z,0.90
2022-11-30T08:05:53.145Z,0.82
2022-11-30T08:08:26.990Z,1.02
2022-11-30T08:11:00.253Z,0.95
2022-11-30T08:13:31.915Z,1.02
2022-11-30T08:16:12.483Z,0.70
2022-11-30T08:18:44.370Z,0.90
2022-11-30T08:21:20.762Z,1.05
2022-11-30T08:23:53.853Z,0.77
2022-11-30T08:26:32.758Z,0.80
2022-11-30T08:29:04.384Z,0.65
2022-11-30T08:31:37.580Z,0.90
2022-11-30T08:34:10.731Z,0.80
2022-11-30T08:36:42.004Z,0.95
2022-11-30T08:39:15.405Z,0.80
2022-11-30T08:41:46.261Z,1.30
2022-11-30T08:44:16.533Z,0.77
2022-11-30T08:46:52.100Z,0.80
2022-11-30T08:49:25.722Z,0.98
2022-11-30T08:54:51.179Z,1.08
2022-11-30T08:57:24.971Z,0.80
2022-11-30T08:59:55.761Z,1.00
2022-11-30T09:02:31.514Z,0.70
2022-11-30T09:05:02.895Z,0.80
2022-11-30T09:07:35.484Z,0.73
2022-11-30T09:10:07.052Z,0.80
2022-11-30T09:12:40.030Z,1.00
2022-11-30T09:15:11.644Z,0.90
2022-11-30T09:17:41.852Z,0.80
2022-11-30T09:20:12.488Z,0.80
2022-11-30T09:22:44.241Z,0.65
2022-11-30T09:25:14.447Z,0.90
2022-11-30T09:27:44.703Z,0.98
2022-11-30T09:30:15.393Z,0.70
2022-11-30T09:32:45.666Z,0.98
2022-11-30T09:35:16.309Z,0.98
2022-11-30T09:37:46.512Z,0.98
2022-11-30T09:40:18.021Z,1.05
2022-11-30T09:43:20.795Z,1.15
2022-11-30T09:46:05.743Z,1.10
2022-11-30T09:48:47.742Z,1.27
2022-11-30T09:51:29.061Z,1.10
2022-11-30T09:54:14.801Z,0.80
2022-11-30T09:56:47.234Z,1.15
2022-11-30T09:59:21.457Z,0.98
2022-11-30T10:01:56.719Z,1.10
2022-11-30T10:04:30.449Z,1.45
2022-11-30T10:07:05.210Z,1.10
2022-11-30T10:10:08.955Z,1.20
2022-11-30T10:12:46.203Z,1.23
2022-11-30T10:15:52.631Z,1.20
2022-11-30T10:18:46.433Z,1.40
2022-11-30T10:21:31.323Z,1.63
2022-11-30T10:24:28.067Z,1.30
2022-11-30T10:27:00.519Z,1.40
2022-11-30T10:29:41.714Z,1.10
2022-11-30T10:32:29.872Z,1.42
2022-11-30T10:35:15.476Z,1.80
2022-11-30T10:37:47.661Z,1.40
2022-11-30T10:40:21.803Z,1.88
2022-11-30T10:43:25.756Z,1.80
2022-11-30T10:45:56.559Z,1.73
2022-11-30T10:48:45.265Z,1.48
2022-11-30T10:51:15.834Z,1.35
2022-11-30T10:53:46.066Z,1.60
2022-11-30T10:56:17.858Z,1.50
2022-11-30T10:58:57.690Z,1.67
2022-11-30T11:01:34.191Z,1.80
2022-11-30T11:04:13.627Z,1.63
2022-11-30T11:06:47.766Z,1.52
2022-11-30T11:09:33.136Z,1.98
2022-11-30T11:12:32.644Z,2.40
2022-11-30T11:15:24.890Z,1.73
2022-11-30T11:17:56.370Z,2.08
2022-11-30T11:20:38.581Z,2.08
2022-11-30T11:23:08.707Z,1.45
2022-11-30T11:25:45.194Z,1.52
2022-11-30T11:28:21.879Z,1.05
2022-11-30T11:30:54.784Z,1.92
2022-11-30T11:33:31.117Z,1.90
2022-11-30T11:36:32.111Z,1.83
2022-11-30T11:39:03.512Z,1.40
2022-11-30T11:41:36.890Z,1.60
2022-11-30T11:44:13.021Z,2.22
2022-11-30T11:47:01.772Z,1.17
2022-11-30T11:49:41.850Z,1.20
2022-11-30T11:52:15.117Z,1.42
2022-11-30T11:55:15.542Z,2.03
2022-11-30T11:58:17.321Z,1.52
2022-11-30T12:00:49.085Z,1.17
2022-11-30T12:03:25.969Z,1.08
2022-11-30T12:06:05.766Z,1.35
2022-11-30T12:08:44.757Z,1.33
2022-11-30T12:11:23.664Z,1.20
2022-11-30T12:13:55.378Z,1.40
2022-11-30T12:16:25.697Z,1.13
2022-11-30T12:19:20.228Z,1.30
2022-11-30T12:22:11.330Z,1.30
2022-11-30T12:24:51.092Z,1.25
2022-11-30T12:27:29.989Z,1.25
2022-11-30T12:30:46.929Z,1.35
2022-11-30T12:33:43.510Z,1.63
2022-11-30T12:36:31.185Z,1.38
2022-11-30T12:39:31.790Z,1.23
2022-11-30T12:42:10.033Z,1.25
2022-11-30T12:45:38.980Z,1.00
2022-11-30T12:48:27.147Z,1.48
2022-11-30T12:51:15.127Z,1.42
2022-11-30T12:54:03.776Z,1.55
2022-11-30T12:56:48.648Z,1.70
2022-11-30T12:59:31.227Z,1.40
2022-11-30T13:02:19.222Z,1.40
2022-11-30T13:05:17.939Z,1.33
2022-11-30T13:08:19.784Z,1.67
2022-11-30T13:10:57.616Z,1.75
2022-11-30T13:13:32.570Z,1.70
2022-11-30T13:16:07.113Z,1.70
2022-11-30T13:18:39.080Z,1.40
2022-11-30T13:21:23.754Z,1.63
2022-11-30T13:24:17.815Z,1.45
2022-11-30T13:26:50.833Z,1.50
2022-11-30T13:29:42.281Z,2.35
2022-11-30T13:32:41.067Z,1.50
2022-11-30T13:35:30.878Z,1.55
2022-11-30T13:38:37.876Z,1.40
2022-11-30T13:41:10.647Z,1.52
2022-11-30T13:43:49.008Z,1.48
2022-11-30T13:46:26.521Z,1.73
2022-11-30T13:49:36.447Z,1.50
2022-11-30T13:52:24.323Z,1.48
2022-11-30T13:54:59.919Z,1.83
2022-11-30T13:57:33.180Z,1.90
2022-11-30T14:00:06.755Z,1.33
2022-11-30T14:02:59.923Z,1.98
2022-11-30T14:05:42.321Z,1.23
2022-11-30T14:08:14.714Z,1.95
2022-11-30T14:10:50.597Z,1.67
2022-11-30T14:13:24.474Z,1.50
2022-11-30T14:15:59.086Z,1.75
2022-11-30T14:18:42.085Z,2.00
2022-11-30T14:21:36.597Z,1.90
2022-11-30T14:24:18.557Z,1.80
2022-11-30T14:26:53.914Z,1.67
2022-11-30T14:29:34.196Z,1.98
2022-11-30T14:32:40.269Z,1.80
2022-11-30T14:35:22.456Z,2.05
2022-11-30T14:37:56.548Z,2.40
2022-11-30T14:40:29.375Z,1.83
2022-11-30T14:43:05.832Z,1.70
2022-11-30T14:45:38.209Z,1.92
2022-11-30T14:48:20.016Z,1.83
2022-11-30T14:50:53.841Z,1.90
2022-11-30T14:53:52.245Z,2.10
2022-11-30T14:56:43.833Z,1.60
2022-11-30T14:59:35.225Z,1.70
2022-11-30T15:02:08.521Z,1.42
2022-11-30T15:04:39.393Z,1.67
2022-11-30T15:07:16.789Z,1.90
2022-11-30T15:09:49.948Z,1.58
2022-11-30T15:12:26.460Z,2.33
2022-11-30T15:15:08.327Z,2.00
2022-11-30T15:17:53.714Z,1.50
2022-11-30T15:20:44.365Z,1.38
2022-11-30T15:23:18.618Z,1.88
2022-11-30T15:26:02.067Z,1.77
2022-11-30T15:28:40.994Z,1.80
2022-11-30T15:31:18.341Z,1.70
2022-11-30T15:34:08.918Z,1.83
2022-11-30T15:36:40.576Z,1.92
2022-11-30T15:39:18.853Z,1.50
2022-11-30T15:41:49.596Z,1.88
2022-11-30T15:44:48.324Z,1.70
2022-11-30T15:47:30.042Z,1.55
2022-11-30T15:50:00.454Z,1.80
2022-11-30T15:52:33.005Z,1.50
2022-11-30T15:55:06.662Z,1.70
2022-11-30T15:58:01.191Z,2.00
2022-11-30T16:00:32.329Z,1.48
2022-11-30T16:03:16.132Z,1.20
2022-11-30T16:05:59.012Z,1.63
2022-11-30T16:08:32.647Z,1.73
2022-11-30T16:11:07.590Z,1.67
2022-11-30T16:13:38.414Z,1.38
2022-11-30T16:16:25.459Z,1.40
2022-11-30T16:18:55.827Z,1.30
2022-11-30T16:21:26.048Z,1.60
2022-11-30T16:23:56.522Z,1.60
2022-11-30T16:26:50.099Z,1.10
2022-11-30T16:29:17.142Z,1.80
2022-11-30T16:31:47.749Z,1.50
2022-11-30T16:34:18.848Z,1.13
2022-11-30T16:36:49.260Z,1.88
2022-11-30T16:39:19.638Z,1.50
2022-11-30T16:41:49.950Z,1.30
2022-11-30T16:44:20.758Z,1.50
2022-11-30T16:46:51.625Z,1.33
2022-11-30T16:49:22.390Z,1.25
2022-11-30T16:51:52.571Z,1.25
2022-11-30T16:54:23.158Z,1.15
2022-11-30T16:56:53.368Z,1.30
2022-11-30T16:59:23.767Z,1.80
2022-11-30T17:01:54.936Z,1.40
2022-11-30T17:04:32.204Z,1.60
2022-11-30T17:07:02.976Z,1.55
2022-11-30T17:09:36.174Z,1.50
2022-11-30T17:12:06.480Z,1.30
2022-11-30T17:14:36.706Z,1.25
2022-11-30T17:17:06.932Z,1.42
2022-11-30T17:19:37.368Z,1.25
2022-11-30T17:22:07.859Z,1.50
2022-11-30T17:24:38.067Z,1.10
2022-11-30T17:27:08.410Z,1.40
2022-11-30T17:29:38.887Z,1.30
2022-11-30T17:32:09.143Z,1.30
2022-11-30T17:34:39.574Z,1.52
2022-11-30T17:37:10.399Z,1.40
2022-11-30T17:39:40.883Z,1.30
2022-11-30T17:42:11.629Z,1.33
2022-11-30T17:44:42.104Z,1.40
2022-11-30T17:47:12.475Z,1.42
2022-11-30T17:49:42.827Z,1.38
2022-11-30T17:52:13.190Z,1.10
2022-11-30T17:54:43.697Z,1.13
2022-11-30T17:57:13.905Z,1.10
2022-11-30T17:59:44.210Z,1.33
2022-11-30T18:02:15.050Z,1.30
2022-11-30T18:04:45.674Z,1.30
2022-11-30T18:07:19.413Z,1.10
2022-11-30T18:09:49.747Z,1.15
2022-11-30T18:12:20.030Z,1.35
2022-11-30T18:14:50.914Z,1.10
2022-11-30T18:17:21.357Z,1.40
2022-11-30T18:19:51.658Z,1.30
2022-11-30T18:22:21.867Z,1.42
2022-11-30T18:24:52.507Z,1.38
2022-11-30T18:27:22.892Z,1.38
2022-11-30T18:29:53.950Z,1.42
2022-11-30T18:32:24.240Z,1.50
2022-11-30T18:34:54.415Z,1.25
2022-11-30T18:37:24.632Z,1.63
2022-11-30T18:39:54.909Z,1.27
2022-11-30T18:42:25.070Z,1.55
2022-11-30T18:44:55.306Z,1.25
2022-11-30T18:47:25.610Z,1.33
2022-11-30T18:49:56.081Z,1.08
2022-11-30T18:52:26.490Z,1.30
2022-11-30T18:54:57.272Z,1.00
2022-11-30T18:57:27.603Z,1.20
2022-11-30T18:59:58.429Z,0.93
2022-11-30T19:02:28.812Z,1.27
2022-11-30T19:04:59.367Z,1.40
2022-11-30T19:07:29.906Z,1.17
2022-11-30T19:10:00.483Z,0.90
2022-11-30T19:12:30.666Z,1.35
2022-11-30T19:15:00.914Z,1.30
2022-11-30T19:17:31.189Z,1.42
2022-11-30T19:20:02.360Z,1.33
2022-11-30T19:22:32.856Z,1.23
2022-11-30T19:25:03.125Z,1.10
2022-11-30T19:27:33.321Z,1.27
2022-11-30T19:30:03.560Z,1.00
2022-11-30T19:32:34.186Z,1.52
2022-11-30T19:35:04.403Z,1.63
2022-11-30T19:37:34.624Z,1.42
2022-11-30T19:40:04.998Z,1.50
2022-11-30T19:42:35.266Z,1.20
2022-11-30T19:45:05.811Z,1.83
2022-11-30T19:47:36.534Z,1.33
2022-11-30T19:50:07.515Z,1.02
2022-11-30T19:52:37.680Z,1.63
2022-11-30T19:55:08.363Z,1.50
2022-11-30T19:57:38.938Z,1.52
2022-11-30T20:00:09.928Z,1.50
2022-11-30T20:02:40.186Z,1.40
2022-11-30T20:05:10.904Z,1.25
2022-11-30T20:07:41.168Z,1.25
2022-11-30T20:10:14.951Z,1.17
2022-11-30T20:12:45.333Z,1.00
2022-11-30T20:15:15.618Z,1.25
2022-11-30T20:17:45.915Z,1.13
2022-11-30T20:20:16.425Z,1.45
2022-11-30T20:22:46.635Z,1.20
2022-11-30T20:25:16.899Z,1.40
2022-11-30T20:27:47.102Z,1.70
2022-11-30T20:30:17.555Z,1.45
2022-11-30T20:32:47.953Z,1.40
2022-11-30T20:35:18.340Z,1.10
2022-11-30T20:37:48.835Z,1.38
2022-11-30T20:40:19.194Z,1.20
2022-11-30T20:42:49.685Z,1.05
2022-11-30T20:45:19.921Z,1.10
2022-11-30T20:47:50.209Z,1.70
2022-11-30T20:50:20.473Z,1.33
2022-11-30T20:52:50.768Z,1.23
2022-11-30T20:55:20.950Z,1.27
2022-11-30T20:57:51.422Z,1.55
2022-11-30T21:00:21.988Z,1.15
2022-11-30T21:02:52.341Z,1.70
2022-11-30T21:05:22.714Z,1.60
2022-11-30T21:07:53.256Z,1.40
2022-11-30T21:10:23.451Z,1.50
2022-11-30T21:12:54.283Z,2.13
2022-11-30T21:15:24.508Z,1.92
2022-11-30T21:17:54.749Z,1.50
2022-11-30T21:20:24.978Z,2.00
2022-11-30T21:22:55.206Z,1.35
2022-11-30T21:25:25.396Z,1.25
2022-11-30T21:27:55.683Z,1.30
2022-11-30T21:30:26.113Z,1.50
2022-11-30T21:32:56.447Z,1.42
2022-11-30T21:35:26.720Z,1.40
2022-11-30T21:37:57.566Z,1.30
2022-11-30T21:40:27.735Z,1.83
2022-11-30T21:42:58.220Z,1.80
2022-11-30T21:45:28.460Z,1.48
2022-11-30T21:47:59.042Z,1.38
2022-11-30T21:50:29.587Z,1.35
2022-11-30T21:52:59.933Z,1.80
2022-11-30T21:55:30.135Z,1.60
2022-11-30T21:58:00.368Z,1.50
2022-11-30T22:00:30.608Z,1.45
2022-11-30T22:03:00.875Z,1.80
2022-11-30T22:05:31.144Z,1.60
2022-11-30T22:08:01.422Z,1.48
2022-11-30T22:10:31.659Z,1.38
2022-11-30T22:13:01.988Z,1.77
2022-11-30T22:15:32.336Z,1.33
2022-11-30T22:18:02.573Z,2.05
2022-11-30T22:20:32.855Z,1.50
2022-11-30T22:23:03.109Z,1.60
2022-11-30T22:25:33.363Z,2.00
2022-11-30T22:28:03.613Z,1.83
2022-11-30T22:30:33.837Z,1.65
2022-11-30T22:33:04.021Z,1.50
2022-11-30T22:35:35.207Z,1.90
2022-11-30T22:38:05.885Z,1.75
2022-11-30T22:40:36.407Z,1.65
2022-11-30T22:43:06.755Z,1.40
2022-11-30T22:45:36.961Z,1.80
2022-11-30T22:48:07.653Z,1.38
2022-11-30T22:50:38.620Z,2.08
2022-11-30T22:53:08.992Z,2.15
2022-11-30T22:55:41.626Z,1.77
2022-11-30T22:58:15.333Z,1.70
2022-11-30T23:00:45.838Z,1.60
2022-11-30T23:03:16.523Z,2.08
2022-11-30T23:05:47.068Z,2.03
2022-11-30T23:08:26.311Z,1.90
2022-11-30T23:11:08.540Z,1.58
2022-11-30T23:13:39.532Z,2.30
2022-11-30T23:16:11.314Z,1.80
2022-11-30T23:18:50.214Z,1.85
2022-11-30T23:21:30.680Z,1.80
2022-11-30T23:24:03.957Z,2.38
2022-11-30T23:26:39.587Z,1.85
2022-11-30T23:29:13.248Z,2.17
2022-11-30T23:31:45.230Z,2.30
2022-11-30T23:34:24.057Z,2.15
2022-11-30T23:36:54.472Z,2.10
2022-11-30T23:39:24.701Z,1.88
2022-11-30T23:41:55.239Z,2.10
2022-11-30T23:44:25.421Z,2.08
2022-11-30T23:46:55.857Z,1.95
2022-11-30T23:49:26.167Z,1.98
2022-11-30T23:51:56.582Z,2.28
2022-11-30T23:54:26.837Z,1.75
2022-11-30T23:56:57.436Z,1.70
2022-11-30T23:59:27.598Z,1.88
